createdAt,value
2023-04-30T00:00:24.678Z,4.75
2023-04-30T00:02:56.953Z,5.15
2023-04-30T00:05:29.280Z,5.70
2023-04-30T00:08:01.292Z,5.72
2023-04-30T00:10:33.457Z,5.53
2023-04-30T00:13:06.035Z,5.38
2023-04-30T00:15:38.236Z,5.30
2023-04-30T00:18:11.186Z,5.90
2023-04-30T00:20:43.420Z,6.30
2023-04-30T00:23:15.485Z,6.20
2023-04-30T00:25:47.576Z,5.03
2023-04-30T00:28:19.876Z,5.82
2023-04-30T00:30:51.907Z,6.15
2023-04-30T00:33:24.274Z,5.20
2023-04-30T00:35:56.476Z,5.93
2023-04-30T00:38:28.622Z,6.47
2023-04-30T00:41:00.751Z,5.60
2023-04-30T00:43:34.435Z,6.07
2023-04-30T00:46:06.844Z,6.15
2023-04-30T00:48:39.356Z,6.03
2023-04-30T00:51:11.588Z,5.78
2023-04-30T00:53:44.135Z,6.93
2023-04-30T00:56:16.636Z,6.90
2023-04-30T01:01:31.967Z,6.80
2023-04-30T01:04:04.737Z,5.97
2023-04-30T01:06:37.281Z,6.07
2023-04-30T01:09:10.483Z,6.63
2023-04-30T01:12:16.848Z,7.40
2023-04-30T01:15:20.784Z,7.60
2023-04-30T01:18:13.345Z,7.68
2023-04-30T01:21:04.674Z,7.25
2023-04-30T01:24:15.322Z,7.40
2023-04-30T01:27:23.787Z,6.90
2023-04-30T01:30:17.148Z,8.32
2023-04-30T01:32:49.906Z,7.93
2023-04-30T01:35:41.722Z,7.30
2023-04-30T01:38:50.779Z,7.32
2023-04-30T01:41:48.387Z,8.35
2023-04-30T01:45:09.312Z,8.35
2023-04-30T01:48:14.727Z,8.98
2023-04-30T01:51:16.812Z,7.88
2023-04-30T01:54:02.245Z,8.38
2023-04-30T01:57:23.031Z,8.35
2023-04-30T02:00:00.854Z,8.15
2023-04-30T02:02:34.154Z,8.80
2023-04-30T02:05:06.752Z,9.35
2023-04-30T02:07:44.810Z,9.50
2023-04-30T02:10:21.823Z,10.23
2023-04-30T02:12:55.750Z,8.73
2023-04-30T02:15:27.772Z,9.30
2023-04-30T02:18:00.306Z,8.95
2023-04-30T02:20:32.468Z,8.90
2023-04-30T02:23:04.610Z,10.40
2023-04-30T02:25:38.680Z,9.45
2023-04-30T02:28:13.077Z,10.52
2023-04-30T02:30:45.083Z,10.02
2023-04-30T02:33:17.145Z,9.50
2023-04-30T02:35:49.223Z,10.18
2023-04-30T02:38:21.550Z,10.35
2023-04-30T02:44:38.582Z,10.40
2023-04-30T02:47:10.947Z,9.82
2023-04-30T02:54:56.843Z,9.32
2023-04-30T02:57:28.874Z,9.85
2023-04-30T03:00:00.953Z,9.20
2023-04-30T03:02:33.464Z,10.60
2023-04-30T03:05:06.238Z,9.93
2023-04-30T03:07:38.595Z,10.95
2023-04-30T03:10:10.928Z,9.52
2023-04-30T03:12:42.985Z,9.90
2023-04-30T03:15:15.609Z,10.45
2023-04-30T03:17:47.906Z,9.77
2023-04-30T03:20:19.966Z,10.25
2023-04-30T03:22:52.077Z,10.38
2023-04-30T03:25:24.115Z,9.88
2023-04-30T03:27:56.114Z,9.57
2023-04-30T03:30:28.832Z,10.52
2023-04-30T03:33:01.072Z,9.35
2023-04-30T03:35:34.258Z,8.60
2023-04-30T03:38:06.322Z,10.40
2023-04-30T03:40:38.469Z,10.05
2023-04-30T03:43:10.440Z,9.68
2023-04-30T03:45:42.699Z,10.73
2023-04-30T03:48:14.847Z,9.98
2023-04-30T03:50:47.021Z,10.80
2023-04-30T03:53:19.129Z,9.85
2023-04-30T03:55:51.370Z,10.50
2023-04-30T03:58:24.544Z,10.02
2023-04-30T04:00:56.731Z,10.43
2023-04-30T04:03:29.041Z,10.77
2023-04-30T04:06:01.386Z,10.73
2023-04-30T04:08:34.260Z,10.30
2023-04-30T04:11:07.385Z,10.35
2023-04-30T04:13:41.113Z,11.32
2023-04-30T04:16:13.123Z,11.00
2023-04-30T04:18:45.345Z,10.70
2023-04-30T04:21:17.429Z,11.43
2023-04-30T04:23:49.697Z,11.05
2023-04-30T04:26:25.516Z,11.65
2023-04-30T04:28:59.638Z,10.52
2023-04-30T04:31:32.185Z,11.55
2023-04-30T04:34:05.187Z,12.73
2023-04-30T04:36:37.216Z,12.15
2023-04-30T04:39:09.789Z,10.80
2023-04-30T04:41:42.648Z,11.23
2023-04-30T04:44:14.645Z,12.00
2023-04-30T04:46:46.825Z,11.68
2023-04-30T04:49:19.594Z,11.75
2023-04-30T04:51:51.802Z,12.10
2023-04-30T04:54:23.848Z,12.02
2023-04-30T04:56:55.840Z,12.18
2023-04-30T04:59:28.260Z,11.10
2023-04-30T05:02:00.641Z,12.18
2023-04-30T05:04:32.686Z,11.73
2023-04-30T05:07:04.810Z,11.93
2023-04-30T05:09:37.035Z,12.43
2023-04-30T05:12:09.085Z,12.55
2023-04-30T05:14:41.426Z,12.38
2023-04-30T05:17:13.803Z,10.90
2023-04-30T05:19:47.568Z,13.00
2023-04-30T05:22:22.087Z,12.40
2023-04-30T05:24:54.398Z,12.77
2023-04-30T05:27:27.329Z,11.40
2023-04-30T05:29:59.803Z,13.07
2023-04-30T05:32:32.738Z,11.00
2023-04-30T05:35:05.179Z,12.60
2023-04-30T05:37:37.808Z,12.57
2023-04-30T05:40:10.516Z,13.20
2023-04-30T05:42:46.253Z,12.80
2023-04-30T05:45:18.443Z,13.32
2023-04-30T05:47:50.600Z,12.40
2023-04-30T05:50:22.870Z,12.90
2023-04-30T05:52:55.118Z,12.20
2023-04-30T05:55:27.302Z,12.80
2023-04-30T05:57:59.490Z,13.23
2023-04-30T06:00:31.492Z,12.13
2023-04-30T06:03:03.699Z,13.10
2023-04-30T06:05:35.734Z,12.55
2023-04-30T06:08:08.035Z,13.75
2023-04-30T06:10:40.294Z,11.57
2023-04-30T06:13:12.572Z,12.73
2023-04-30T06:15:46.152Z,12.98
2023-04-30T06:18:18.196Z,13.07
2023-04-30T06:20:51.075Z,13.00
2023-04-30T06:23:23.143Z,11.75
2023-04-30T06:25:55.612Z,13.23
2023-04-30T06:28:27.743Z,12.73
2023-04-30T06:30:59.895Z,11.75
2023-04-30T06:33:32.103Z,11.77
2023-04-30T06:36:04.531Z,11.10
2023-04-30T06:38:36.962Z,11.25
2023-04-30T06:41:09.254Z,11.82
2023-04-30T06:43:41.410Z,11.38
2023-04-30T06:46:15.286Z,10.73
2023-04-30T06:48:47.554Z,10.55
2023-04-30T06:51:19.563Z,11.50
2023-04-30T06:53:51.941Z,10.77
2023-04-30T06:56:25.022Z,11.25
2023-04-30T06:58:57.407Z,10.27
2023-04-30T07:01:29.454Z,9.82
2023-04-30T07:04:02.171Z,10.52
2023-04-30T07:06:34.580Z,11.77
2023-04-30T07:09:07.254Z,10.10
2023-04-30T07:11:40.120Z,9.63
2023-04-30T07:14:12.773Z,9.68
2023-04-30T07:16:45.547Z,9.57
2023-04-30T07:19:17.983Z,9.90
2023-04-30T07:21:50.450Z,9.85
2023-04-30T07:24:22.972Z,8.70
2023-04-30T07:26:55.233Z,8.63
2023-04-30T07:29:27.456Z,8.97
2023-04-30T07:32:00.926Z,8.80
2023-04-30T07:34:34.079Z,7.97
2023-04-30T07:37:06.256Z,7.33
2023-04-30T07:39:39.916Z,7.40
2023-04-30T07:42:12.198Z,7.43
2023-04-30T07:44:44.712Z,7.73
2023-04-30T07:47:17.643Z,8.07
2023-04-30T07:49:51.042Z,6.13
2023-04-30T07:52:23.421Z,6.03
2023-04-30T07:54:55.744Z,7.70
2023-04-30T07:57:28.510Z,6.43
2023-04-30T08:00:01.111Z,6.70
2023-04-30T08:02:34.100Z,7.40
2023-04-30T08:05:09.382Z,7.50
2023-04-30T08:07:41.705Z,5.90
2023-04-30T08:10:15.269Z,6.17
2023-04-30T08:12:47.699Z,6.47
2023-04-30T08:15:23.038Z,6.57
2023-04-30T08:17:55.694Z,5.40
2023-04-30T08:20:29.532Z,6.60
2023-04-30T08:23:03.110Z,6.40
2023-04-30T08:25:35.524Z,5.60
2023-04-30T08:28:10.002Z,5.77
2023-04-30T08:30:42.835Z,5.20
2023-04-30T08:33:21.823Z,6.10
2023-04-30T08:35:55.102Z,6.07
2023-04-30T08:38:28.666Z,5.60
2023-04-30T08:41:15.661Z,6.33
2023-04-30T08:43:53.016Z,6.07
2023-04-30T08:46:27.561Z,4.83
2023-04-30T08:49:04.791Z,6.40
2023-04-30T08:51:37.631Z,5.20
2023-04-30T08:54:20.768Z,5.27
2023-04-30T08:56:56.658Z,4.10
2023-04-30T08:59:31.344Z,4.50
2023-04-30T09:02:11.177Z,3.70
2023-04-30T09:04:45.140Z,3.47
2023-04-30T09:07:19.207Z,4.10
2023-04-30T09:09:55.839Z,3.60
2023-04-30T09:12:30.119Z,3.60
2023-04-30T09:15:07.027Z,3.93
2023-04-30T09:17:41.576Z,4.43
2023-04-30T09:20:14.655Z,4.80
2023-04-30T09:22:48.761Z,4.50
2023-04-30T09:25:46.301Z,4.28
2023-04-30T09:28:23.999Z,4.40
2023-04-30T09:30:59.572Z,3.70
2023-04-30T09:33:50.290Z,4.05
2023-04-30T09:36:25.210Z,4.30
2023-04-30T09:39:18.287Z,3.73
2023-04-30T09:41:53.244Z,4.50
2023-04-30T09:44:43.899Z,3.70
2023-04-30T09:47:19.949Z,3.90
2023-04-30T09:49:53.740Z,3.60
2023-04-30T09:52:27.126Z,3.50
2023-04-30T09:54:59.518Z,3.57
2023-04-30T09:57:36.505Z,4.37
2023-04-30T10:00:10.571Z,4.03
2023-04-30T10:02:44.050Z,4.30
2023-04-30T10:05:19.996Z,4.30
2023-04-30T10:07:54.072Z,4.00
2023-04-30T10:10:32.912Z,4.00
2023-04-30T10:13:11.767Z,4.20
2023-04-30T10:15:54.422Z,4.47
2023-04-30T10:18:37.156Z,5.10
2023-04-30T10:21:14.946Z,5.63
2023-04-30T10:23:53.951Z,4.30
2023-04-30T10:26:30.058Z,3.77
2023-04-30T10:29:08.602Z,4.00
2023-04-30T10:31:47.262Z,4.50
2023-04-30T10:34:36.283Z,4.10
2023-04-30T10:37:38.664Z,4.37
2023-04-30T10:40:19.758Z,5.40
2023-04-30T10:42:55.117Z,5.53
2023-04-30T10:45:38.211Z,4.13
2023-04-30T10:48:16.719Z,4.07
2023-04-30T10:50:57.779Z,3.73
2023-04-30T10:53:32.512Z,4.17
2023-04-30T10:56:09.691Z,4.17
2023-04-30T10:58:44.192Z,3.80
2023-04-30T11:01:17.865Z,4.30
2023-04-30T11:04:06.789Z,3.90
2023-04-30T11:06:52.706Z,4.30
2023-04-30T11:09:41.273Z,3.60
2023-04-30T11:12:28.776Z,4.80
2023-04-30T11:15:06.976Z,4.10
2023-04-30T11:17:46.454Z,4.17
2023-04-30T11:20:21.648Z,4.30
2023-04-30T11:23:19.631Z,4.10
2023-04-30T11:26:01.129Z,4.70
2023-04-30T11:28:37.845Z,3.97
2023-04-30T11:31:13.042Z,4.60
2023-04-30T11:33:47.629Z,4.17
2023-04-30T11:36:20.983Z,4.33
2023-04-30T11:38:54.871Z,4.03
2023-04-30T11:41:27.833Z,4.00
2023-04-30T11:43:59.942Z,4.17
2023-04-30T11:46:32.683Z,3.63
2023-04-30T11:49:05.327Z,3.90
2023-04-30T11:51:41.249Z,4.03
2023-04-30T11:54:14.645Z,4.53
2023-04-30T11:56:51.287Z,4.47
2023-04-30T11:59:23.516Z,4.30
2023-04-30T12:01:55.775Z,4.63
2023-04-30T12:04:28.571Z,3.50
2023-04-30T12:07:02.350Z,4.10
2023-04-30T12:09:55.390Z,3.80
2023-04-30T12:12:30.775Z,3.50
2023-04-30T12:15:14.576Z,4.10
2023-04-30T12:17:49.495Z,4.07
2023-04-30T12:20:23.148Z,4.10
2023-04-30T12:22:58.908Z,3.77
2023-04-30T12:25:31.822Z,4.13
2023-04-30T12:28:12.225Z,4.60
2023-04-30T12:30:44.913Z,3.90
2023-04-30T12:33:19.045Z,3.90
2023-04-30T12:35:53.958Z,3.70
2023-04-30T12:38:27.955Z,3.43
2023-04-30T12:41:01.426Z,4.17
2023-04-30T12:43:36.229Z,3.40
2023-04-30T12:46:08.958Z,3.13
2023-04-30T12:48:45.599Z,3.40
2023-04-30T12:51:20.399Z,3.50
2023-04-30T12:53:52.871Z,3.97
2023-04-30T12:56:25.081Z,3.40
2023-04-30T12:58:57.873Z,3.73
2023-04-30T13:01:30.451Z,3.80
2023-04-30T13:04:15.626Z,3.47
2023-04-30T13:06:48.503Z,3.73
2023-04-30T13:09:20.758Z,3.60
2023-04-30T13:11:54.320Z,3.77
2023-04-30T13:14:29.710Z,4.20
2023-04-30T13:17:06.174Z,4.10
2023-04-30T13:19:41.749Z,2.90
2023-04-30T13:22:14.201Z,3.60
2023-04-30T13:24:47.234Z,3.33
2023-04-30T13:27:19.983Z,3.57
2023-04-30T13:29:52.819Z,3.57
2023-04-30T13:32:26.010Z,3.30
2023-04-30T13:34:58.796Z,3.50
2023-04-30T13:37:36.070Z,4.10
2023-04-30T13:40:10.083Z,3.37
2023-04-30T13:42:43.428Z,3.73
2023-04-30T13:45:16.627Z,3.10
2023-04-30T13:47:48.984Z,3.30
2023-04-30T13:50:21.443Z,3.57
2023-04-30T13:52:54.067Z,4.00
2023-04-30T13:55:27.373Z,3.43
2023-04-30T13:58:00.437Z,3.47
2023-04-30T14:00:33.100Z,3.10
2023-04-30T14:03:08.093Z,3.30
2023-04-30T14:05:41.008Z,3.43
2023-04-30T14:08:13.498Z,3.60
2023-04-30T14:10:45.761Z,3.40
2023-04-30T14:13:18.685Z,3.60
2023-04-30T14:15:51.884Z,3.63
2023-04-30T14:18:25.708Z,3.43
2023-04-30T14:20:58.172Z,3.60
2023-04-30T14:23:31.273Z,3.13
2023-04-30T14:26:05.966Z,3.10
2023-04-30T14:28:38.308Z,3.40
2023-04-30T14:31:10.758Z,3.27
2023-04-30T14:33:43.694Z,3.47
2023-04-30T14:36:17.596Z,3.43
2023-04-30T14:38:49.932Z,3.80
2023-04-30T14:41:22.189Z,3.47
2023-04-30T14:43:54.416Z,3.97
2023-04-30T14:46:27.669Z,3.90
2023-04-30T14:49:00.543Z,3.60
2023-04-30T14:51:33.398Z,3.90
2023-04-30T14:54:05.676Z,3.47
2023-04-30T14:56:38.014Z,3.90
2023-04-30T14:59:11.943Z,3.70
2023-04-30T15:01:44.382Z,3.60
2023-04-30T15:04:17.121Z,3.57
2023-04-30T15:06:49.998Z,3.80
2023-04-30T15:09:22.581Z,3.10
2023-04-30T15:11:54.645Z,3.50
2023-04-30T15:14:26.923Z,4.13
2023-04-30T15:16:59.178Z,3.20
2023-04-30T15:19:31.768Z,3.67
2023-04-30T15:22:04.032Z,3.97
2023-04-30T15:24:38.571Z,3.70
2023-04-30T15:27:11.134Z,3.57
2023-04-30T15:29:44.714Z,3.80
2023-04-30T15:32:17.805Z,3.60
2023-04-30T15:34:50.910Z,3.67
2023-04-30T15:37:23.754Z,3.80
2023-04-30T15:39:56.440Z,4.00
2023-04-30T15:42:29.054Z,3.50
2023-04-30T15:45:02.168Z,9.50
2023-04-30T15:47:36.046Z,3.90
2023-04-30T15:50:09.160Z,3.20
2023-04-30T15:52:41.690Z,3.93
2023-04-30T15:55:13.969Z,3.53
2023-04-30T15:57:47.031Z,4.60
2023-04-30T16:00:19.348Z,4.17
2023-04-30T16:02:52.122Z,4.13
2023-04-30T16:05:24.844Z,3.60
2023-04-30T16:07:57.094Z,3.87
2023-04-30T16:10:29.538Z,3.93
2023-04-30T16:13:01.930Z,3.70
2023-04-30T16:15:34.398Z,3.60
2023-04-30T16:18:07.871Z,3.80
2023-04-30T16:20:43.379Z,4.23
2023-04-30T16:23:16.727Z,3.83
2023-04-30T16:25:49.050Z,3.77
2023-04-30T16:28:23.572Z,4.07
2023-04-30T16:30:59.250Z,3.72
2023-04-30T16:33:31.809Z,3.67
2023-04-30T16:36:03.987Z,3.90
2023-04-30T16:38:38.944Z,4.60
2023-04-30T16:41:12.245Z,4.10
2023-04-30T16:43:46.673Z,4.30
2023-04-30T16:46:18.815Z,4.70
2023-04-30T16:48:51.129Z,4.50
2023-04-30T16:51:24.023Z,4.93
2023-04-30T16:53:58.477Z,4.47
2023-04-30T16:56:30.951Z,4.13
2023-04-30T16:59:03.892Z,3.90
2023-04-30T17:01:36.365Z,4.00
2023-04-30T17:04:08.912Z,4.40
2023-04-30T17:06:43.055Z,4.23
2023-04-30T17:09:15.935Z,3.83
2023-04-30T17:11:48.421Z,3.83
2023-04-30T17:14:21.169Z,3.92
2023-04-30T17:16:53.862Z,3.80
2023-04-30T17:19:26.359Z,4.07
2023-04-30T17:21:59.118Z,3.87
2023-04-30T17:24:33.594Z,3.80
2023-04-30T17:27:06.572Z,3.58
2023-04-30T17:29:39.308Z,4.05
2023-04-30T17:32:12.693Z,4.20
2023-04-30T17:34:48.344Z,3.90
2023-04-30T17:37:20.921Z,3.75
2023-04-30T17:39:54.436Z,4.00
2023-04-30T17:42:27.072Z,4.07
2023-04-30T17:45:00.333Z,4.20
2023-04-30T17:47:33.872Z,3.70
2023-04-30T17:50:08.807Z,3.70
2023-04-30T17:52:41.906Z,4.13
2023-04-30T17:55:14.363Z,4.00
2023-04-30T17:57:46.929Z,4.40
2023-04-30T18:00:19.139Z,4.10
2023-04-30T18:02:51.728Z,3.72
2023-04-30T18:05:24.153Z,3.70
2023-04-30T18:07:56.560Z,3.67
2023-04-30T18:10:28.980Z,3.45
2023-04-30T18:13:01.907Z,3.65
2023-04-30T18:15:35.408Z,4.30
2023-04-30T18:18:10.268Z,4.05
2023-04-30T18:20:44.439Z,3.53
2023-04-30T18:23:18.025Z,3.70
2023-04-30T18:25:50.106Z,3.88
2023-04-30T18:28:23.227Z,3.47
2023-04-30T18:30:56.687Z,3.50
2023-04-30T18:33:29.522Z,3.97
2023-04-30T18:36:05.782Z,3.95
2023-04-30T18:38:39.091Z,3.75
2023-04-30T18:41:11.561Z,4.20
2023-04-30T18:43:45.126Z,4.05
2023-04-30T18:46:17.736Z,3.92
2023-04-30T18:48:50.312Z,3.85
2023-04-30T18:51:23.127Z,3.50
2023-04-30T18:53:57.684Z,4.15
2023-04-30T18:56:31.132Z,3.80
2023-04-30T18:59:04.121Z,3.70
2023-04-30T19:01:39.383Z,5.13
2023-04-30T19:04:15.958Z,3.95
2023-04-30T19:06:52.396Z,4.60
2023-04-30T19:09:27.227Z,3.80
2023-04-30T19:12:03.087Z,3.72
2023-04-30T19:14:36.166Z,4.28
2023-04-30T19:17:09.437Z,4.13
2023-04-30T19:19:43.744Z,4.57
2023-04-30T19:22:16.392Z,4.50
2023-04-30T19:24:49.732Z,4.60
2023-04-30T19:27:24.335Z,4.63
2023-04-30T19:30:00.006Z,5.55
2023-04-30T19:32:32.817Z,7.32
2023-04-30T19:35:06.196Z,8.50
2023-04-30T19:37:40.532Z,7.30
2023-04-30T19:40:13.841Z,7.25
2023-04-30T19:42:47.996Z,6.10
2023-04-30T19:45:21.608Z,5.75
2023-04-30T19:47:55.101Z,7.40
2023-04-30T19:50:29.661Z,7.35
2023-04-30T19:53:02.973Z,8.18
2023-04-30T19:55:35.925Z,10.90
2023-04-30T19:58:09.410Z,11.30
2023-04-30T20:00:45.592Z,14.45
2023-04-30T20:03:20.818Z,10.32
2023-04-30T20:05:54.411Z,8.30
2023-04-30T20:08:28.367Z,6.55
2023-04-30T20:11:03.286Z,7.00
2023-04-30T20:13:36.624Z,6.38
2023-04-30T20:16:12.728Z,7.35
2023-04-30T20:18:50.550Z,6.35
2023-04-30T20:21:25.147Z,6.88
2023-04-30T20:24:01.376Z,7.72
2023-04-30T20:26:36.978Z,7.00
2023-04-30T20:29:10.620Z,7.18
2023-04-30T20:31:43.809Z,8.25
2023-04-30T20:34:16.717Z,7.80
2023-04-30T20:36:49.965Z,6.25
2023-04-30T20:39:24.500Z,6.85
2023-04-30T20:41:59.661Z,6.20
2023-04-30T20:44:34.217Z,7.20
2023-04-30T20:47:09.210Z,6.05
2023-04-30T20:49:45.985Z,6.20
2023-04-30T20:52:19.071Z,6.35
2023-04-30T20:54:51.952Z,6.72
2023-04-30T20:57:24.420Z,6.75
2023-04-30T21:00:00.642Z,6.40
2023-04-30T21:02:35.130Z,6.47
2023-04-30T21:05:08.758Z,6.90
2023-04-30T21:07:41.747Z,6.82
2023-04-30T21:10:14.726Z,5.85
2023-04-30T21:12:48.726Z,6.00
2023-04-30T21:15:21.427Z,6.25
2023-04-30T21:17:54.289Z,6.28
2023-04-30T21:20:27.227Z,5.90
2023-04-30T21:23:00.175Z,6.05
2023-04-30T21:25:33.360Z,6.18
2023-04-30T21:28:07.784Z,6.15
2023-04-30T21:30:40.655Z,6.68
2023-04-30T21:33:14.152Z,6.30
2023-04-30T21:35:47.048Z,6.97
2023-04-30T21:38:19.671Z,6.95
2023-04-30T21:40:52.449Z,6.82
2023-04-30T21:43:24.966Z,6.13
2023-04-30T21:46:04.505Z,6.22
2023-04-30T21:48:40.754Z,6.63
2023-04-30T21:51:17.564Z,6.65
2023-04-30T21:53:50.085Z,6.25
2023-04-30T21:56:22.976Z,6.20
2023-04-30T21:58:55.595Z,6.35
2023-04-30T22:01:30.195Z,6.70
2023-04-30T22:04:05.342Z,7.40
2023-04-30T22:06:38.281Z,7.00
2023-04-30T22:09:11.763Z,7.00
2023-04-30T22:11:45.444Z,6.30
2023-04-30T22:14:18.953Z,6.53
2023-04-30T22:16:51.603Z,7.10
2023-04-30T22:19:24.267Z,5.95
2023-04-30T22:21:56.904Z,6.18
2023-04-30T22:24:30.312Z,7.78
2023-04-30T22:27:03.740Z,7.65
2023-04-30T22:29:36.993Z,7.50
2023-04-30T22:32:10.002Z,7.15
2023-04-30T22:34:42.800Z,7.05
2023-04-30T22:37:17.928Z,6.88
2023-04-30T22:39:50.732Z,6.93
2023-04-30T22:42:23.925Z,6.60
2023-04-30T22:44:56.566Z,7.25
2023-04-30T22:47:29.701Z,6.95
2023-04-30T22:50:02.941Z,7.55
2023-04-30T22:52:36.832Z,8.20
2023-04-30T22:55:09.526Z,8.00
2023-04-30T22:57:43.223Z,8.25
2023-04-30T23:00:16.094Z,8.05
2023-04-30T23:02:50.132Z,8.70
2023-04-30T23:05:22.620Z,7.80
2023-04-30T23:07:55.529Z,7.82
2023-04-30T23:10:27.825Z,7.97
2023-04-30T23:13:00.475Z,8.30
2023-04-30T23:15:33.098Z,8.00
2023-04-30T23:18:06.723Z,8.82
2023-04-30T23:20:40.237Z,8.35
2023-04-30T23:23:12.870Z,8.90
2023-04-30T23:25:46.717Z,8.27
2023-04-30T23:28:19.114Z,8.88
2023-04-30T23:30:55.502Z,8.27
2023-04-30T23:33:29.321Z,8.48
2023-04-30T23:36:01.761Z,9.05
2023-04-30T23:38:34.142Z,9.70
2023-04-30T23:41:06.601Z,8.35
2023-04-30T23:43:39.529Z,9.02
2023-04-30T23:46:12.121Z,8.23
2023-04-30T23:48:46.733Z,8.40
2023-04-30T23:51:21.684Z,8.23
2023-04-30T23:53:54.571Z,9.00
2023-04-30T23:56:26.779Z,8.40
2023-04-30T23:58:59.234Z,10.15
